Time;durP1;ratioP1;P1;durP2;ratioP2;P2;SDS_P1;SDS_P2;PMS_P1;PMS_P2;Temp;Humidity;BMP_temperature;BMP_pressure;BME280_temperature;BME280_humidity;BME280_pressure;Samples;Min_cycle;Max_cycle;Signal;HPM_P1;HPM_P2
2024/02/10 00:00:55;;;;;;;0.30;0.30;;;16.10;77.40;;;;;;5015867;28;20083;-79
2024/02/10 00:03:22;;;;;;;0.47;0.40;;;16.10;78.20;;;;;;4999295;28;20041;-79
2024/02/10 00:05:48;;;;;;;0.60;0.30;;;16.10;77.50;;;;;;5002888;28;20069;-79
2024/02/10 00:08:13;;;;;;;1.73;0.40;;;16.10;77.50;;;;;;5002854;28;20452;-80
2024/02/10 00:10:41;;;;;;;0.40;0.32;;;16.00;77.40;;;;;;5005927;28;20030;-80
2024/02/10 00:13:07;;;;;;;0.38;0.30;;;16.10;77.50;;;;;;5013871;28;20042;-80
2024/02/10 00:15:32;;;;;;;0.73;0.35;;;16.10;77.50;;;;;;4968632;28;20045;-80
2024/02/10 00:17:58;;;;;;;0.40;0.30;;;16.10;77.40;;;;;;5002604;28;20029;-80
2024/02/10 00:20:25;;;;;;;0.93;0.32;;;16.10;77.60;;;;;;5016730;28;20300;-79
2024/02/10 00:22:52;;;;;;;0.50;0.47;;;16.00;77.50;;;;;;5016738;28;20503;-80
2024/02/10 00:25:23;;;;;;;0.80;0.57;;;16.00;77.40;;;;;;5000687;28;20054;-80
2024/02/10 00:27:50;;;;;;;0.65;0.52;;;16.00;77.50;;;;;;5019063;28;20060;-80
2024/02/10 00:30:16;;;;;;;0.63;0.57;;;16.00;77.40;;;;;;5000006;28;20045;-79
2024/02/10 00:32:43;;;;;;;0.50;0.30;;;16.00;77.50;;;;;;4997864;28;20042;-80
2024/02/10 00:35:08;;;;;;;1.20;0.43;;;16.00;77.40;;;;;;4994871;28;20121;-80
2024/02/10 00:37:34;;;;;;;0.57;0.40;;;16.00;77.40;;;;;;4985838;28;20134;-79
2024/02/10 00:40:01;;;;;;;0.50;0.30;;;16.00;77.50;;;;;;4998568;28;20448;-79
2024/02/10 00:42:28;;;;;;;1.13;0.40;;;16.00;77.50;;;;;;5016717;28;20045;-79
2024/02/10 00:44:56;;;;;;;2.95;0.40;;;16.00;77.50;;;;;;5001764;28;20546;-79
2024/02/10 00:47:22;;;;;;;1.15;0.50;;;16.00;77.50;;;;;;5002306;28;20507;-79
2024/02/10 00:49:48;;;;;;;1.25;0.43;;;16.00;77.50;;;;;;5005380;28;20096;-79
2024/02/10 00:52:17;;;;;;;0.90;0.30;;;16.00;77.60;;;;;;5002472;28;20056;-79
2024/02/10 00:54:45;;;;;;;0.65;0.22;;;16.00;77.60;;;;;;5017315;28;20045;-80
2024/02/10 00:57:11;;;;;;;0.65;0.50;;;16.00;78.30;;;;;;4997384;28;20117;-80
2024/02/10 00:59:40;;;;;;;0.30;0.30;;;16.00;77.50;;;;;;4999404;28;20034;-80
2024/02/10 01:02:07;;;;;;;0.60;0.35;;;16.00;77.50;;;;;;5001812;28;20397;-79
2024/02/10 01:04:33;;;;;;;0.45;0.40;;;16.00;77.60;;;;;;4995978;28;20411;-79
2024/02/10 01:07:01;;;;;;;1.30;0.60;;;16.00;77.70;;;;;;5016327;28;20513;-79
2024/02/10 01:09:30;;;;;;;0.98;0.70;;;16.00;77.70;;;;;;5000876;28;20518;-81
2024/02/10 01:11:55;;;;;;;1.17;0.70;;;16.00;77.70;;;;;;5014026;28;20443;-79
2024/02/10 01:14:21;;;;;;;1.20;0.75;;;16.00;77.80;;;;;;5000928;28;20610;-79
2024/02/10 01:16:47;;;;;;;0.70;0.57;;;16.00;77.90;;;;;;5001899;28;20046;-79
2024/02/10 01:19:13;;;;;;;1.20;0.65;;;16.00;77.90;;;;;;5004637;28;20526;-79
2024/02/10 01:21:40;;;;;;;0.50;0.40;;;16.00;77.90;;;;;;5002535;28;20050;-79
2024/02/10 01:24:08;;;;;;;0.85;0.50;;;16.00;77.80;;;;;;5002263;28;20511;-78
2024/02/10 01:26:37;;;;;;;1.42;0.55;;;16.00;77.80;;;;;;4991441;28;20415;-78
2024/02/10 01:29:04;;;;;;;0.98;0.40;;;16.00;77.80;;;;;;5017738;28;20098;-78
2024/02/10 01:31:30;;;;;;;0.40;0.40;;;16.00;77.90;;;;;;5002910;28;20042;-79
2024/02/10 01:33:56;;;;;;;0.40;0.40;;;16.00;77.80;;;;;;5018878;28;20038;-79
2024/02/10 01:36:22;;;;;;;0.50;0.43;;;16.00;77.80;;;;;;4999921;28;20040;-78
2024/02/10 01:38:49;;;;;;;0.45;0.40;;;16.00;77.90;;;;;;4984897;28;20136;-79
2024/02/10 01:41:14;;;;;;;1.05;0.40;;;16.00;77.90;;;;;;4987022;28;20046;-78
2024/02/10 01:43:41;;;;;;;0.63;0.43;;;16.00;77.90;;;;;;5010986;28;20076;-79
2024/02/10 01:46:16;;;;;;;0.98;0.52;;;16.00;77.90;;;;;;5003364;28;20050;-79
2024/02/10 01:48:42;;;;;;;0.70;0.60;;;16.00;77.90;;;;;;5022391;28;20038;-79
2024/02/10 01:51:08;;;;;;;1.02;0.60;;;16.00;77.90;;;;;;4986310;28;20125;-79
2024/02/10 01:53:35;;;;;;;0.73;0.50;;;16.00;77.80;;;;;;5013955;28;20538;-78
2024/02/10 01:56:01;;;;;;;1.20;0.55;;;16.00;77.80;;;;;;5020980;28;20530;-79
2024/02/10 01:58:26;;;;;;;0.60;0.30;;;16.00;77.90;;;;;;5003090;28;20077;-78
2024/02/10 02:00:53;;;;;;;0.38;0.38;;;16.00;77.90;;;;;;5002440;28;20479;-79
2024/02/10 02:03:19;;;;;;;0.82;0.50;;;16.00;77.80;;;;;;5013268;28;20064;-78
2024/02/10 02:05:45;;;;;;;0.80;0.50;;;16.00;77.90;;;;;;4988500;28;20089;-79
2024/02/10 02:08:11;;;;;;;0.40;0.40;;;16.00;77.80;;;;;;5006840;28;20476;-81
2024/02/10 02:10:36;;;;;;;0.82;0.30;;;16.00;77.90;;;;;;5006169;28;20045;-82
2024/02/10 02:13:03;;;;;;;0.50;0.40;;;16.00;77.80;;;;;;5020086;28;20068;-81
2024/02/10 02:15:30;;;;;;;0.75;0.70;;;16.00;77.80;;;;;;5005496;28;20042;-81
2024/02/10 02:17:56;;;;;;;2.17;0.77;;;16.00;77.90;;;;;;5006180;28;20520;-81
2024/02/10 02:20:22;;;;;;;0.65;0.60;;;16.00;77.80;;;;;;5017358;28;20057;-80
2024/02/10 02:22:52;;;;;;;1.85;0.50;;;16.00;77.70;;;;;;5003898;28;20504;-80
2024/02/10 02:25:18;;;;;;;1.17;0.57;;;16.00;77.70;;;;;;5000655;28;20042;-79
2024/02/10 02:27:43;;;;;;;0.88;0.40;;;16.00;77.60;;;;;;5006186;28;20542;-80
2024/02/10 02:30:09;;;;;;;0.90;0.50;;;16.00;77.50;;;;;;5003303;28;20042;-80
2024/02/10 02:32:35;;;;;;;0.63;0.50;;;16.10;77.50;;;;;;5002931;28;20574;-80
2024/02/10 02:35:09;;;;;;;0.52;0.50;;;16.00;77.50;;;;;;5005924;28;20492;-79
2024/02/10 02:37:43;;;;;;;0.82;0.70;;;16.00;77.50;;;;;;5000608;28;20104;-79
2024/02/10 02:40:10;;;;;;;0.60;0.45;;;16.00;77.50;;;;;;4999128;28;20054;-79
2024/02/10 02:42:36;;;;;;;0.98;0.40;;;16.00;77.40;;;;;;5002107;28;20433;-78
2024/02/10 02:45:06;;;;;;;0.45;0.38;;;16.00;77.40;;;;;;4999383;28;20512;-78
2024/02/10 02:47:36;;;;;;;0.60;0.43;;;16.00;77.40;;;;;;5016610;28;20124;-78
2024/02/10 02:50:09;;;;;;;0.55;0.30;;;16.00;77.30;;;;;;4989689;28;20496;-78
2024/02/10 02:52:36;;;;;;;0.53;0.37;;;16.00;77.30;;;;;;5006870;28;20056;-78
2024/02/10 02:55:02;;;;;;;0.35;0.32;;;16.00;77.30;;;;;;5018564;28;20052;-78
2024/02/10 02:57:34;;;;;;;0.50;0.50;;;16.00;77.50;;;;;;4995763;28;20042;-78
2024/02/10 03:00:00;;;;;;;0.40;0.32;;;16.00;77.30;;;;;;5016700;28;20488;-81
2024/02/10 03:02:26;;;;;;;0.73;0.50;;;16.00;77.40;;;;;;5013793;28;20137;-79
2024/02/10 03:04:52;;;;;;;0.65;0.50;;;16.00;77.20;;;;;;4990757;28;20488;-79
2024/02/10 03:07:17;;;;;;;0.50;0.40;;;16.10;77.50;;;;;;5017536;28;20048;-79
2024/02/10 03:09:44;;;;;;;0.63;0.50;;;16.10;78.20;;;;;;4999773;28;20046;-81
2024/02/10 03:12:11;;;;;;;0.60;0.60;;;16.10;77.50;;;;;;5001986;28;20050;-79
2024/02/10 03:14:38;;;;;;;0.63;0.55;;;16.10;77.50;;;;;;5001494;28;20178;-80
2024/02/10 03:17:07;;;;;;;0.40;0.38;;;16.10;77.60;;;;;;4986285;28;20037;-79
2024/02/10 03:19:36;;;;;;;0.50;0.50;;;16.10;77.80;;;;;;5002095;28;20132;-82
2024/02/10 03:22:03;;;;;;;1.05;0.60;;;16.10;78.00;;;;;;5001355;28;20527;-81
2024/02/10 03:24:30;;;;;;;0.50;0.40;;;16.10;78.10;;;;;;5001385;28;20049;-81
2024/02/10 03:26:55;;;;;;;0.85;0.55;;;16.10;78.20;;;;;;5003429;28;20599;-82
2024/02/10 03:29:21;;;;;;;1.08;0.25;;;16.00;78.20;;;;;;5001180;28;20149;-82
2024/02/10 03:31:46;;;;;;;0.32;0.32;;;16.10;78.40;;;;;;5005261;28;20046;-82
2024/02/10 03:34:12;;;;;;;0.85;0.50;;;16.10;78.30;;;;;;5004347;28;20325;-82
2024/02/10 03:36:38;;;;;;;0.50;0.40;;;16.10;78.30;;;;;;5015966;28;20050;-83
2024/02/10 03:39:03;;;;;;;0.40;0.30;;;16.10;78.30;;;;;;5020829;28;20042;-83
2024/02/10 03:41:29;;;;;;;0.30;0.30;;;16.10;78.40;;;;;;5012446;28;20456;-83
2024/02/10 03:43:55;;;;;;;1.05;0.40;;;16.10;78.50;;;;;;5002535;28;20050;-81
2024/02/10 03:46:21;;;;;;;0.40;0.40;;;16.10;78.20;;;;;;4998961;28;20050;-81
2024/02/10 03:48:48;;;;;;;0.88;0.20;;;16.10;78.30;;;;;;5016329;28;20073;-81
2024/02/10 03:51:14;;;;;;;0.73;0.43;;;16.10;78.20;;;;;;5017126;28;20500;-81
2024/02/10 03:53:39;;;;;;;0.28;0.28;;;16.10;78.20;;;;;;5003797;28;20052;-82
2024/02/10 03:56:12;;;;;;;0.38;0.38;;;16.10;78.40;;;;;;5018523;28;20772;-82
2024/02/10 03:58:43;;;;;;;0.68;0.30;;;16.10;78.20;;;;;;5005114;28;20504;-81
2024/02/10 04:01:13;;;;;;;0.28;0.22;;;16.00;78.20;;;;;;5015119;28;20115;-82
2024/02/10 04:03:44;;;;;;;0.85;0.45;;;16.10;78.20;;;;;;4995587;28;20125;-82
2024/02/10 04:06:11;;;;;;;0.30;0.30;;;16.00;78.10;;;;;;5018256;28;20041;-82
2024/02/10 04:08:37;;;;;;;0.50;0.30;;;16.10;78.20;;;;;;5002038;28;20042;-81
2024/02/10 04:11:06;;;;;;;0.63;0.50;;;16.10;78.20;;;;;;5003692;28;20037;-80
2024/02/10 04:13:34;;;;;;;0.63;0.32;;;16.10;78.20;;;;;;5001476;28;20050;-80
2024/02/10 04:16:00;;;;;;;0.90;0.38;;;16.10;78.10;;;;;;5003213;28;20052;-81
2024/02/10 04:18:28;;;;;;;0.20;0.20;;;16.00;78.10;;;;;;5015053;28;20033;-79
2024/02/10 04:20:56;;;;;;;0.50;0.30;;;16.00;78.00;;;;;;5015873;28;20046;-81
2024/02/10 04:23:28;;;;;;;0.93;0.45;;;16.00;78.10;;;;;;5001417;28;20427;-81
2024/02/10 04:25:54;;;;;;;0.35;0.30;;;16.00;77.90;;;;;;4986250;28;20508;-81
2024/02/10 04:28:19;;;;;;;0.45;0.40;;;16.00;78.00;;;;;;5001634;28;20046;-81
2024/02/10 04:30:46;;;;;;;0.40;0.20;;;16.00;77.90;;;;;;5016309;28;20037;-81
2024/02/10 04:33:13;;;;;;;0.38;0.30;;;16.00;77.90;;;;;;5016745;28;20491;-80
2024/02/10 04:35:39;;;;;;;0.45;0.30;;;16.00;77.90;;;;;;5014327;28;20053;-82
2024/02/10 04:38:08;;;;;;;0.50;0.25;;;16.00;78.70;;;;;;5002343;28;20069;-82
2024/02/10 04:40:34;;;;;;;0.30;0.30;;;16.00;78.00;;;;;;4988619;28;20038;-81
2024/02/10 04:43:00;;;;;;;0.40;0.20;;;16.00;77.90;;;;;;5001877;28;20393;-82
2024/02/10 04:45:27;;;;;;;0.65;0.10;;;16.00;78.70;;;;;;5017701;28;20046;-82
2024/02/10 04:47:52;;;;;;;0.50;0.30;;;16.00;77.90;;;;;;5013933;28;20053;-82
2024/02/10 04:50:21;;;;;;;0.35;0.30;;;16.00;77.90;;;;;;5000742;28;20049;-82
2024/02/10 04:52:47;;;;;;;0.45;0.20;;;16.00;77.90;;;;;;5004268;28;20050;-82
2024/02/10 04:55:13;;;;;;;0.95;0.45;;;16.00;77.90;;;;;;4998801;28;20050;-82
2024/02/10 04:57:40;;;;;;;0.40;0.20;;;16.00;77.90;;;;;;5002352;28;20052;-82
2024/02/10 05:00:12;;;;;;;0.40;0.40;;;16.00;77.90;;;;;;5015936;28;20423;-82
2024/02/10 05:02:44;;;;;;;0.30;0.20;;;16.00;77.80;;;;;;4999065;28;20052;-82
2024/02/10 05:05:10;;;;;;;0.32;0.30;;;16.00;77.90;;;;;;5015575;28;20068;-80
2024/02/10 05:07:40;;;;;;;0.50;0.38;;;16.00;77.80;;;;;;4988744;28;20050;-80
2024/02/10 05:10:06;;;;;;;0.28;0.28;;;16.00;78.60;;;;;;4998737;28;20069;-80
2024/02/10 05:12:32;;;;;;;0.50;0.30;;;16.00;77.80;;;;;;5003035;28;20116;-80
2024/02/10 05:14:57;;;;;;;0.47;0.20;;;16.00;77.80;;;;;;5016012;28;20073;-80
2024/02/10 05:17:23;;;;;;;0.32;0.30;;;16.00;77.70;;;;;;5012861;28;20057;-81
2024/02/10 05:19:48;;;;;;;0.25;0.10;;;16.00;77.80;;;;;;5000953;28;20519;-80
2024/02/10 05:22:17;;;;;;;0.17;0.17;;;16.00;77.70;;;;;;5014361;28;20432;-81
2024/02/10 05:24:48;;;;;;;1.00;0.20;;;16.00;77.70;;;;;;4999549;28;20125;-80
2024/02/10 05:27:13;;;;;;;0.70;0.28;;;15.90;77.60;;;;;;5001705;28;20069;-81
2024/02/10 05:29:40;;;;;;;0.20;0.20;;;15.90;78.40;;;;;;4999971;28;20415;-80
2024/02/10 05:32:06;;;;;;;0.20;0.20;;;15.90;77.60;;;;;;5007130;28;20045;-81
2024/02/10 05:34:31;;;;;;;0.57;0.20;;;15.90;77.50;;;;;;5005460;28;20621;-80
2024/02/10 05:36:59;;;;;;;0.30;0.30;;;15.90;77.60;;;;;;5017090;28;20081;-80
2024/02/10 05:39:25;;;;;;;0.40;0.20;;;15.90;77.60;;;;;;5003968;28;20049;-80
2024/02/10 05:41:52;;;;;;;0.75;0.25;;;15.90;77.60;;;;;;5005469;28;20081;-80
2024/02/10 05:44:18;;;;;;;3.03;0.20;;;15.90;77.60;;;;;;5004850;28;20073;-80
2024/02/10 05:46:44;;;;;;;0.32;0.15;;;15.90;77.60;;;;;;5006767;28;20077;-80
2024/02/10 05:49:10;;;;;;;0.20;0.20;;;15.90;77.60;;;;;;5023136;28;20049;-80
2024/02/10 05:51:39;;;;;;;0.50;0.30;;;15.90;77.60;;;;;;5019950;28;20043;-81
2024/02/10 05:54:05;;;;;;;0.50;0.20;;;15.90;77.60;;;;;;5017825;28;20038;-81
2024/02/10 05:56:31;;;;;;;0.20;0.20;;;15.90;77.60;;;;;;5006179;28;20042;-81
2024/02/10 05:58:56;;;;;;;0.20;0.10;;;15.90;77.60;;;;;;5020669;28;20054;-82
2024/02/10 06:01:22;;;;;;;0.43;0.10;;;15.90;77.50;;;;;;5017222;28;20049;-81
2024/02/10 06:03:52;;;;;;;0.30;0.22;;;15.90;77.50;;;;;;5006706;28;20491;-81
2024/02/10 06:06:19;;;;;;;0.40;0.20;;;15.90;77.40;;;;;;5004992;28;20129;-81
2024/02/10 06:08:45;;;;;;;0.30;0.30;;;15.90;77.40;;;;;;5020834;28;20041;-81
2024/02/10 06:11:11;;;;;;;0.32;0.20;;;15.90;77.40;;;;;;5005704;28;20046;-81
2024/02/10 06:13:37;;;;;;;0.32;0.22;;;15.90;77.40;;;;;;5006428;28;20189;-80
2024/02/10 06:16:05;;;;;;;0.20;0.20;;;15.90;77.40;;;;;;5007583;28;20183;-81
2024/02/10 06:18:31;;;;;;;0.10;0.10;;;15.90;77.30;;;;;;5014059;28;20404;-81
2024/02/10 06:21:00;;;;;;;0.25;0.20;;;15.90;77.30;;;;;;5002031;28;20122;-81
2024/02/10 06:23:26;;;;;;;0.20;0.17;;;15.90;77.40;;;;;;5018966;28;20034;-81
2024/02/10 06:25:54;;;;;;;0.28;0.10;;;15.90;77.30;;;;;;5001372;28;20088;-80
2024/02/10 06:28:21;;;;;;;0.10;0.10;;;15.90;77.30;;;;;;5018366;28;20116;-80
2024/02/10 06:30:46;;;;;;;0.30;0.30;;;15.90;77.30;;;;;;5004533;28;20030;-80
2024/02/10 06:33:12;;;;;;;0.20;0.20;;;15.90;77.30;;;;;;5000888;28;20038;-82
2024/02/10 06:35:38;;;;;;;0.40;0.10;;;15.90;77.30;;;;;;5018242;28;20049;-82
2024/02/10 06:38:03;;;;;;;0.25;0.17;;;15.90;77.30;;;;;;4987104;28;20069;-82
2024/02/10 06:40:29;;;;;;;0.30;0.20;;;15.90;77.30;;;;;;5005094;28;20038;-82
2024/02/10 06:42:54;;;;;;;0.60;0.30;;;15.90;77.20;;;;;;4997581;28;20057;-80
2024/02/10 06:45:30;;;;;;;2.65;0.20;;;15.90;77.50;;;;;;4999203;28;20096;-80
2024/02/10 06:47:56;;;;;;;0.30;0.10;;;15.90;77.20;;;;;;5013957;28;20042;-80
2024/02/10 06:50:26;;;;;;;0.28;0.10;;;15.90;77.20;;;;;;5000847;28;20955;-81
2024/02/10 06:52:52;;;;;;;0.30;0.20;;;15.80;77.10;;;;;;5005101;28;20037;-80
2024/02/10 06:55:19;;;;;;;1.02;0.20;;;15.90;77.00;;;;;;4989868;28;20052;-81
2024/02/10 06:57:47;;;;;;;0.75;0.20;;;15.80;77.00;;;;;;5004744;28;20522;-81
2024/02/10 07:00:14;;;;;;;0.47;0.13;;;15.90;77.10;;;;;;5000643;28;20057;-81
2024/02/10 07:02:44;;;;;;;0.45;0.30;;;15.90;77.20;;;;;;5003088;28;20407;-81
2024/02/10 07:05:11;;;;;;;0.68;0.20;;;15.80;77.10;;;;;;5005791;28;20070;-82
2024/02/10 07:07:39;;;;;;;0.47;0.25;;;15.80;77.10;;;;;;5006207;28;20115;-80
2024/02/10 07:10:14;;;;;;;0.45;0.45;;;15.90;77.00;;;;;;5005632;28;20042;-81
2024/02/10 07:12:44;;;;;;;0.30;0.30;;;15.80;77.00;;;;;;4655378;28;10001134;-79
2024/02/10 07:15:17;;;;;;;0.28;0.20;;;15.90;77.10;;;;;;5001130;28;20074;-80
2024/02/10 07:17:43;;;;;;;0.68;0.20;;;15.90;77.10;;;;;;4980647;28;20050;-80
2024/02/10 07:20:12;;;;;;;0.20;0.20;;;15.90;77.20;;;;;;5016755;28;20045;-79
2024/02/10 07:22:38;;;;;;;0.30;0.30;;;15.90;77.30;;;;;;5015362;28;20050;-79
2024/02/10 07:25:04;;;;;;;0.57;0.45;;;15.90;77.40;;;;;;5017014;28;20045;-79
2024/02/10 07:27:33;;;;;;;0.70;0.50;;;15.90;77.40;;;;;;5015149;28;20104;-79
2024/02/10 07:29:59;;;;;;;0.40;0.38;;;15.90;77.40;;;;;;4998380;28;20664;-79
2024/02/10 07:32:26;;;;;;;0.30;0.20;;;15.90;77.40;;;;;;5001534;28;20042;-79
2024/02/10 07:34:53;;;;;;;0.30;0.20;;;15.90;77.40;;;;;;5000552;28;20398;-79
2024/02/10 07:37:19;;;;;;;0.28;0.22;;;15.90;77.40;;;;;;4999252;28;20523;-79
2024/02/10 07:39:50;;;;;;;1.17;0.40;;;15.90;77.40;;;;;;5000426;28;20069;-79
2024/02/10 07:42:16;;;;;;;1.48;0.20;;;15.90;77.40;;;;;;5011724;28;20048;-79
2024/02/10 07:44:42;;;;;;;0.60;0.30;;;15.90;77.30;;;;;;5011817;28;20573;-79
2024/02/10 07:47:10;;;;;;;0.73;0.20;;;15.90;77.40;;;;;;5013783;28;20487;-79
2024/02/10 07:49:36;;;;;;;1.00;0.25;;;15.90;77.40;;;;;;4982990;28;20070;-79
2024/02/10 07:52:02;;;;;;;0.20;0.20;;;15.90;77.40;;;;;;4997094;28;20581;-79
2024/02/10 07:54:30;;;;;;;0.40;0.30;;;15.90;77.30;;;;;;5000564;28;20049;-79
2024/02/10 07:56:55;;;;;;;0.43;0.40;;;15.90;77.30;;;;;;4997515;28;20100;-79
2024/02/10 07:59:23;;;;;;;0.20;0.13;;;15.90;77.20;;;;;;5010530;28;20054;-79
2024/02/10 08:01:49;;;;;;;0.20;0.20;;;15.90;77.00;;;;;;4999012;28;20045;-78
2024/02/10 08:04:18;;;;;;;0.20;0.20;;;15.90;77.10;;;;;;5014035;28;20042;-79
2024/02/10 08:06:45;;;;;;;0.10;0.10;;;15.90;77.00;;;;;;5000824;28;20053;-79
2024/02/10 08:09:11;;;;;;;0.10;0.10;;;15.90;76.90;;;;;;5011759;28;20049;-78
2024/02/10 08:11:39;;;;;;;0.30;0.20;;;15.90;77.10;;;;;;5000921;28;20053;-79
2024/02/10 08:14:05;;;;;;;0.70;0.45;;;15.90;76.90;;;;;;4983597;28;20121;-77
2024/02/10 08:16:31;;;;;;;1.80;0.13;;;15.90;77.60;;;;;;4996690;28;20539;-78
2024/02/10 08:18:57;;;;;;;1.75;0.10;;;16.00;76.90;;;;;;4997614;28;20050;-79
2024/02/10 08:21:24;;;;;;;0.50;0.30;;;16.00;76.80;;;;;;5012279;28;20424;-79
2024/02/10 08:23:52;;;;;;;0.43;0.20;;;16.00;77.30;;;;;;4994997;28;20499;-79
2024/02/10 08:26:21;;;;;;;0.20;0.10;;;16.00;76.80;;;;;;5012424;28;20073;-79
2024/02/10 08:28:51;;;;;;;0.43;0.35;;;16.00;76.80;;;;;;5000788;28;20042;-79
2024/02/10 08:31:20;;;;;;;0.30;0.20;;;16.00;76.70;;;;;;5013911;28;20040;-81
2024/02/10 08:33:47;;;;;;;1.08;0.45;;;15.90;76.80;;;;;;4998607;28;20030;-80
2024/02/10 08:36:15;;;;;;;1.65;0.30;;;16.00;76.60;;;;;;5012638;28;20116;-80
2024/02/10 08:38:40;;;;;;;0.60;0.20;;;16.10;76.50;;;;;;5000363;28;20411;-80
2024/02/10 08:41:06;;;;;;;0.20;0.20;;;16.00;76.60;;;;;;4998152;28;20050;-81
2024/02/10 08:43:32;;;;;;;0.55;0.25;;;16.00;76.50;;;;;;4997342;28;20284;-81
2024/02/10 08:46:00;;;;;;;0.22;0.15;;;16.00;76.60;;;;;;5000800;28;20045;-81
2024/02/10 08:48:26;;;;;;;0.40;0.30;;;16.10;76.80;;;;;;5002618;28;20547;-81
2024/02/10 08:50:53;;;;;;;0.85;0.28;;;16.10;76.40;;;;;;5011036;28;20060;-80
2024/02/10 08:53:19;;;;;;;1.63;0.30;;;16.00;76.20;;;;;;5016831;28;20038;-80
2024/02/10 08:55:45;;;;;;;0.30;0.30;;;16.00;76.70;;;;;;5000869;28;20038;-80
2024/02/10 08:58:10;;;;;;;1.60;0.25;;;16.00;76.80;;;;;;5001370;28;20087;-80
2024/02/10 09:00:38;;;;;;;0.98;0.35;;;16.00;77.40;;;;;;4998608;28;20638;-80
2024/02/10 09:03:05;;;;;;;1.45;0.30;;;16.00;76.70;;;;;;4999605;28;20045;-80
2024/02/10 09:05:30;;;;;;;0.50;0.20;;;16.00;76.60;;;;;;5005854;28;20423;-80
2024/02/10 09:07:56;;;;;;;0.60;0.30;;;16.00;76.70;;;;;;5024175;28;20049;-80
2024/02/10 09:10:22;;;;;;;0.30;0.20;;;16.00;76.80;;;;;;5020092;28;20107;-81
2024/02/10 09:12:47;;;;;;;0.82;0.20;;;16.00;76.90;;;;;;5002170;28;20049;-80
2024/02/10 09:15:13;;;;;;;0.50;0.10;;;16.00;76.80;;;;;;5018481;28;20050;-81
2024/02/10 09:17:39;;;;;;;0.50;0.28;;;16.00;76.70;;;;;;5007494;28;20081;-81
2024/02/10 09:20:08;;;;;;;0.45;0.20;;;16.00;76.50;;;;;;4990020;28;20096;-81
2024/02/10 09:22:34;;;;;;;1.55;0.20;;;16.00;76.70;;;;;;4999582;28;20049;-81
2024/02/10 09:25:00;;;;;;;0.30;0.20;;;16.00;76.60;;;;;;5001369;28;20046;-80
2024/02/10 09:27:25;;;;;;;0.20;0.10;;;16.00;76.70;;;;;;5002460;28;20049;-80
2024/02/10 09:29:54;;;;;;;0.40;0.20;;;16.00;76.60;;;;;;5007865;28;20042;-80
2024/02/10 09:32:19;;;;;;;0.20;0.20;;;16.00;76.60;;;;;;4989049;28;20120;-81
2024/02/10 09:34:46;;;;;;;0.52;0.20;;;16.00;76.60;;;;;;5006930;28;20068;-80
2024/02/10 09:37:11;;;;;;;0.17;0.13;;;16.00;77.20;;;;;;5021934;28;20132;-80
2024/02/10 09:39:37;;;;;;;0.30;0.20;;;16.00;76.40;;;;;;5024871;28;20113;-80
2024/02/10 09:42:05;;;;;;;0.22;0.20;;;16.10;76.10;;;;;;5006372;28;20504;-80
2024/02/10 09:44:31;;;;;;;0.25;0.25;;;16.10;75.80;;;;;;5021773;28;20060;-80
2024/02/10 09:46:57;;;;;;;0.40;0.10;;;16.10;75.40;;;;;;4991567;28;20049;-81
2024/02/10 09:49:23;;;;;;;0.60;0.20;;;16.20;75.10;;;;;;5001972;28;20048;-81
2024/02/10 09:51:49;;;;;;;0.40;0.32;;;16.20;75.00;;;;;;5006976;28;20125;-80
2024/02/10 09:54:14;;;;;;;0.90;0.20;;;16.30;74.80;;;;;;5017754;28;20141;-81
2024/02/10 09:56:41;;;;;;;0.30;0.20;;;16.30;74.80;;;;;;5020676;28;20030;-81
2024/02/10 09:59:10;;;;;;;0.30;0.22;;;16.30;74.50;;;;;;5022371;28;20052;-81
2024/02/10 10:01:37;;;;;;;0.38;0.20;;;16.30;74.60;;;;;;5022487;28;20041;-81
2024/02/10 10:04:09;;;;;;;0.45;0.22;;;16.30;74.70;;;;;;5019730;28;20125;-81
2024/02/10 10:06:36;;;;;;;0.45;0.20;;;16.30;74.80;;;;;;5017075;28;20041;-82
2024/02/10 10:09:02;;;;;;;0.95;0.40;;;16.30;74.80;;;;;;5020321;28;20044;-82
2024/02/10 10:11:27;;;;;;;0.68;0.40;;;16.20;75.20;;;;;;5019047;28;20125;-81
2024/02/10 10:13:53;;;;;;;1.25;0.30;;;16.30;75.20;;;;;;5005662;28;20535;-81
2024/02/10 10:16:18;;;;;;;0.88;0.32;;;16.30;75.00;;;;;;4999977;28;20049;-81
2024/02/10 10:18:55;;;;;;;0.10;0.10;;;16.30;75.10;;;;;;5000564;28;20135;-81
2024/02/10 10:21:20;;;;;;;0.30;0.28;;;16.40;74.90;;;;;;5005554;28;20042;-81
2024/02/10 10:23:46;;;;;;;0.80;0.25;;;16.40;74.60;;;;;;5003452;28;20041;-81
2024/02/10 10:26:12;;;;;;;0.28;0.15;;;16.40;74.40;;;;;;5021043;28;20058;-81
2024/02/10 10:28:41;;;;;;;1.15;0.45;;;16.50;74.40;;;;;;4989173;28;20073;-81
2024/02/10 10:31:07;;;;;;;0.47;0.30;;;16.50;74.30;;;;;;5003895;28;20046;-80
2024/02/10 10:33:33;;;;;;;0.32;0.20;;;16.50;74.20;;;;;;5020893;28;20029;-81
2024/02/10 10:36:02;;;;;;;0.35;0.30;;;16.50;74.20;;;;;;5003143;28;20026;-80
2024/02/10 10:38:27;;;;;;;0.68;0.22;;;16.60;74.10;;;;;;5005520;28;20511;-81
2024/02/10 10:40:53;;;;;;;0.52;0.30;;;16.60;74.10;;;;;;5006247;28;20053;-80
2024/02/10 10:43:22;;;;;;;0.10;0.10;;;16.60;74.00;;;;;;5005901;28;20052;-81
2024/02/10 10:45:48;;;;;;;0.50;0.32;;;16.60;74.20;;;;;;5005617;28;20041;-81
2024/02/10 10:48:13;;;;;;;0.38;0.20;;;16.60;74.10;;;;;;5018578;28;20046;-81
2024/02/10 10:50:39;;;;;;;0.88;0.50;;;16.60;74.00;;;;;;4986711;28;20100;-80
2024/02/10 10:53:07;;;;;;;0.35;0.20;;;16.60;73.90;;;;;;5018999;28;20034;-80
2024/02/10 10:55:34;;;;;;;0.60;0.32;;;16.60;73.80;;;;;;5004028;28;20056;-80
2024/02/10 10:58:04;;;;;;;1.25;0.40;;;16.70;73.80;;;;;;4988522;28;20124;-81
2024/02/10 11:00:30;;;;;;;0.63;0.20;;;16.70;73.70;;;;;;5003107;28;20109;-81
2024/02/10 11:02:56;;;;;;;0.55;0.50;;;16.70;73.70;;;;;;5016828;28;20030;-81
2024/02/10 11:05:23;;;;;;;0.47;0.32;;;16.70;73.50;;;;;;5005537;28;20526;-81
2024/02/10 11:07:59;;;;;;;0.55;0.30;;;16.70;73.50;;;;;;5020029;28;20037;-81
2024/02/10 11:10:36;;;;;;;1.08;0.35;;;16.70;73.50;;;;;;5003859;28;20590;-81
2024/02/10 11:13:01;;;;;;;0.40;0.40;;;16.70;73.40;;;;;;4999460;28;20042;-80
2024/02/10 11:15:27;;;;;;;0.75;0.25;;;16.70;73.60;;;;;;5006053;28;20488;-80
2024/02/10 11:18:01;;;;;;;0.68;0.40;;;16.70;73.50;;;;;;5017542;28;20544;-80
2024/02/10 11:20:39;;;;;;;0.75;0.32;;;16.70;73.40;;;;;;5000147;28;20066;-81
2024/02/10 11:23:18;;;;;;;0.70;0.40;;;16.70;73.80;;;;;;4984604;28;20042;-80
2024/02/10 11:25:44;;;;;;;0.60;0.40;;;16.70;73.40;;;;;;5013523;28;20046;-80
2024/02/10 11:28:22;;;;;;;0.40;0.32;;;16.70;73.40;;;;;;4985547;28;20044;-81
2024/02/10 11:30:48;;;;;;;0.47;0.30;;;16.80;73.40;;;;;;5000735;28;20042;-80
2024/02/10 11:33:23;;;;;;;0.50;0.40;;;16.80;73.40;;;;;;5001237;28;20043;-80
2024/02/10 11:35:53;;;;;;;1.05;0.40;;;16.80;73.40;;;;;;5004816;28;20046;-80
2024/02/10 11:38:21;;;;;;;0.82;0.30;;;16.70;73.40;;;;;;4996705;28;20053;-80
2024/02/10 11:40:48;;;;;;;1.15;0.50;;;16.70;73.00;;;;;;5000689;28;20046;-80
2024/02/10 11:43:14;;;;;;;4.68;0.77;;;16.80;73.40;;;;;;5015093;28;20054;-81
2024/02/10 11:45:43;;;;;;;0.63;0.40;;;16.70;73.30;;;;;;5016586;28;20044;-80
2024/02/10 11:48:08;;;;;;;0.60;0.43;;;16.80;73.40;;;;;;5015877;28;20499;-80
2024/02/10 11:50:43;;;;;;;0.43;0.40;;;16.80;73.30;;;;;;4999530;28;20049;-80
2024/02/10 11:53:14;;;;;;;0.63;0.50;;;16.80;73.30;;;;;;4983601;28;20054;-80
2024/02/10 11:55:41;;;;;;;0.70;0.50;;;16.80;73.00;;;;;;5004081;28;20072;-80
2024/02/10 11:58:09;;;;;;;0.77;0.50;;;16.80;73.20;;;;;;4987032;28;20038;-80
2024/02/10 12:00:34;;;;;;;1.15;0.65;;;16.80;73.00;;;;;;5000814;28;20054;-80
2024/02/10 12:03:00;;;;;;;0.90;0.65;;;16.80;73.00;;;;;;4983353;28;20042;-80
2024/02/10 12:05:29;;;;;;;1.17;0.68;;;16.80;72.50;;;;;;5001803;28;20054;-80
2024/02/10 12:07:54;;;;;;;1.45;0.50;;;16.80;72.80;;;;;;5004738;28;20057;-79
2024/02/10 12:10:21;;;;;;;0.70;0.50;;;16.80;73.20;;;;;;5004432;28;20057;-81
2024/02/10 12:12:53;;;;;;;1.50;0.50;;;16.80;73.10;;;;;;5001411;28;20041;-82
2024/02/10 12:15:19;;;;;;;1.15;0.80;;;16.80;73.00;;;;;;5005209;28;20124;-82
2024/02/10 12:17:48;;;;;;;0.52;0.50;;;16.80;74.00;;;;;;5000838;28;20045;-81
2024/02/10 12:20:18;;;;;;;0.50;0.50;;;16.90;74.20;;;;;;4986570;28;20153;-80
2024/02/10 12:22:45;;;;;;;0.50;0.50;;;16.80;74.00;;;;;;5004957;28;20065;-79
2024/02/10 12:25:11;;;;;;;0.60;0.57;;;16.90;74.40;;;;;;4986183;28;20084;-79
2024/02/10 12:27:36;;;;;;;0.60;0.60;;;17.00;74.10;;;;;;5001001;28;20046;-80
2024/02/10 12:30:03;;;;;;;1.23;0.73;;;16.90;74.30;;;;;;4987106;28;20125;-80
2024/02/10 12:32:29;;;;;;;0.73;0.73;;;16.90;74.30;;;;;;5002934;28;20047;-79
2024/02/10 12:34:54;;;;;;;1.05;0.70;;;16.90;74.20;;;;;;5017491;28;20103;-80
2024/02/10 12:37:20;;;;;;;0.65;0.55;;;16.90;76.00;;;;;;5015072;28;20511;-80
2024/02/10 12:39:46;;;;;;;2.35;0.90;;;16.90;76.30;;;;;;5017005;28;20045;-79
2024/02/10 12:42:11;;;;;;;1.25;0.82;;;16.90;75.70;;;;;;4967972;28;20042;-80
2024/02/10 12:44:37;;;;;;;1.70;0.85;;;17.00;75.60;;;;;;5018260;28;20038;-81